This is the latest recevied weather packets stored in our database for station/object YN9ZMM-13. If no packets are shown the sender has not sent any weather packets the latest 10 day(s).
| Time | Temp. | Humidity | Pressure | Rain* | Wind** | Luminosity | Snow |
|---|---|---|---|---|---|---|---|
| 1778176511 | 28.33° C | 31% | 1012 hPa | 0 mm | - | - | - |
| 1778175911 | 27.78° C | 33% | 1012 hPa | 0 mm | - | - | - |
| 1778175310 | 27.78° C | 33% | 1012 hPa | 0 mm | - | - | - |
| 1778174711 | 26.67° C | 36% | 1013 hPa | 0 mm | - | - | - |
| 1778174110 | 26.67° C | 36% | 1013 hPa | 0 mm | - | - | - |
| 1778173509 | 26.67° C | 36% | 1013 hPa | 0 mm | - | - | - |
| 1778172909 | 26.67° C | 36% | 1013 hPa | 0 mm | - | - | - |
| 1778172308 | 26.67° C | 36% | 1013 hPa | 0 mm | - | - | - |
| 1778171708 | 26.67° C | 39% | 1014 hPa | 0 mm | - | - | - |
| 1778171108 | 26.67° C | 39% | 1014 hPa | 0 mm | - | - | - |
| 1778170507 | 26.11° C | 39% | 1014 hPa | 0 mm | - | - | - |
| 1778169907 | 25.56° C | 39% | 1014 hPa | 0 mm | - | - | - |
| 1778169306 | 25° C | 39% | 1014 hPa | 0 mm | - | - | - |
| 1778168706 | 25° C | 44% | 1014 hPa | 0 mm | - | - | - |
| 1778168106 | 25° C | 44% | 1014 hPa | 0 mm | - | - | - |
| 1778167505 | 23.33° C | 54% | 1014 hPa | 0 mm | - | - | - |
| 1778166905 | 23.33° C | 56% | 1014 hPa | 0 mm | - | - | - |
| 1778166303 | 23.33° C | 56% | 1014 hPa | 0 mm | - | - | - |
| 1778165103 | 23.33° C | 59% | 1014 hPa | 0 mm | - | - | - |
| 1778164502 | 23.33° C | 61% | 1014 hPa | 0 mm | - | - | - |
| 1778163902 | 27.22° C | 80% | 1014 hPa | 0 mm | - | - | - |
| 1778163302 | 26.67° C | 80% | 1014 hPa | 0 mm | - | - | - |
| 1778162701 | 26.11° C | 80% | 1014 hPa | 0 mm | - | - | - |
| 1778162101 | 25.56° C | 80% | 1014 hPa | 0 mm | - | - | - |
| 1778161500 | 25° C | 80% | 1014 hPa | 0 mm | - | - | - |
* Rain latest hour (hover to see other rain measurements)
** Current wind speed in m/s (hover to see current wind gust speed)